sensor_id;sensor_type;location;lat;lon;timestamp;temperature;humidity
11423;DHT22;5768;51.476;7.210;2023-07-22T00:02:00;16.10;13.00
11423;DHT22;5768;51.476;7.210;2023-07-22T00:07:02;16.10;13.10
11423;DHT22;5768;51.476;7.210;2023-07-22T00:12:08;16.00;13.20
11423;DHT22;5768;51.476;7.210;2023-07-22T00:17:11;16.00;13.10
11423;DHT22;5768;51.476;7.210;2023-07-22T00:22:14;16.00;13.10
11423;DHT22;5768;51.476;7.210;2023-07-22T00:27:19;16.00;13.30
11423;DHT22;5768;51.476;7.210;2023-07-22T00:32:24;16.10;13.30
11423;DHT22;5768;51.476;7.210;2023-07-22T00:37:34;16.10;13.30
11423;DHT22;5768;51.476;7.210;2023-07-22T00:42:38;16.20;13.30
11423;DHT22;5768;51.476;7.210;2023-07-22T00:47:42;16.20;13.20
11423;DHT22;5768;51.476;7.210;2023-07-22T00:52:46;16.20;13.00
11423;DHT22;5768;51.476;7.210;2023-07-22T00:57:50;16.20;13.00
11423;DHT22;5768;51.476;7.210;2023-07-22T01:02:52;16.20;13.00
11423;DHT22;5768;51.476;7.210;2023-07-22T01:07:55;16.20;13.00
11423;DHT22;5768;51.476;7.210;2023-07-22T01:13:00;16.20;13.10
11423;DHT22;5768;51.476;7.210;2023-07-22T01:18:02;16.20;13.10
11423;DHT22;5768;51.476;7.210;2023-07-22T01:23:07;16.10;13.10
11423;DHT22;5768;51.476;7.210;2023-07-22T01:28:11;16.10;13.20
11423;DHT22;5768;51.476;7.210;2023-07-22T01:33:18;16.00;13.20
11423;DHT22;5768;51.476;7.210;2023-07-22T01:38:22;16.10;13.20
11423;DHT22;5768;51.476;7.210;2023-07-22T01:43:25;16.10;13.30
11423;DHT22;5768;51.476;7.210;2023-07-22T01:48:27;16.10;13.20
11423;DHT22;5768;51.476;7.210;2023-07-22T01:53:31;16.20;13.20
11423;DHT22;5768;51.476;7.210;2023-07-22T01:58:34;16.40;13.30
11423;DHT22;5768;51.476;7.210;2023-07-22T02:03:37;16.30;13.30
11423;DHT22;5768;51.476;7.210;2023-07-22T02:08:43;16.20;13.20
11423;DHT22;5768;51.476;7.210;2023-07-22T02:13:46;16.20;13.20
11423;DHT22;5768;51.476;7.210;2023-07-22T02:18:51;16.20;13.20
11423;DHT22;5768;51.476;7.210;2023-07-22T02:23:59;16.10;13.20
11423;DHT22;5768;51.476;7.210;2023-07-22T02:29:06;16.00;13.30
11423;DHT22;5768;51.476;7.210;2023-07-22T02:34:24;15.90;13.30
11423;DHT22;5768;51.476;7.210;2023-07-22T02:39:30;15.80;13.40
11423;DHT22;5768;51.476;7.210;2023-07-22T02:44:33;15.80;13.40
11423;DHT22;5768;51.476;7.210;2023-07-22T02:49:35;15.80;13.50
11423;DHT22;5768;51.476;7.210;2023-07-22T02:54:40;15.90;13.50
11423;DHT22;5768;51.476;7.210;2023-07-22T02:59:43;16.00;13.40
11423;DHT22;5768;51.476;7.210;2023-07-22T03:04:49;15.90;13.40
11423;DHT22;5768;51.476;7.210;2023-07-22T03:09:53;16.00;13.40
11423;DHT22;5768;51.476;7.210;2023-07-22T03:14:56;15.50;13.40
11423;DHT22;5768;51.476;7.210;2023-07-22T03:19:59;15.70;13.50
11423;DHT22;5768;51.476;7.210;2023-07-22T03:25:03;15.70;13.40
11423;DHT22;5768;51.476;7.210;2023-07-22T03:30:13;15.60;13.50
11423;DHT22;5768;51.476;7.210;2023-07-22T03:35:17;16.00;13.40
11423;DHT22;5768;51.476;7.210;2023-07-22T03:40:21;16.10;13.40
11423;DHT22;5768;51.476;7.210;2023-07-22T03:45:27;15.90;13.40
11423;DHT22;5768;51.476;7.210;2023-07-22T03:50:30;15.90;13.30
11423;DHT22;5768;51.476;7.210;2023-07-22T03:55:34;15.90;13.20
11423;DHT22;5768;51.476;7.210;2023-07-22T04:00:38;16.00;13.20
11423;DHT22;5768;51.476;7.210;2023-07-22T04:05:40;16.00;13.20
11423;DHT22;5768;51.476;7.210;2023-07-22T04:10:52;15.90;13.20
11423;DHT22;5768;51.476;7.210;2023-07-22T04:15:55;16.00;13.10
11423;DHT22;5768;51.476;7.210;2023-07-22T04:20:58;15.90;13.10
11423;DHT22;5768;51.476;7.210;2023-07-22T04:26:03;16.10;13.10
11423;DHT22;5768;51.476;7.210;2023-07-22T04:31:08;16.00;13.00
11423;DHT22;5768;51.476;7.210;2023-07-22T04:36:12;16.20;13.00
11423;DHT22;5768;51.476;7.210;2023-07-22T04:41:16;16.10;13.00
11423;DHT22;5768;51.476;7.210;2023-07-22T04:46:18;16.30;13.10
11423;DHT22;5768;51.476;7.210;2023-07-22T04:51:21;16.20;12.80
11423;DHT22;5768;51.476;7.210;2023-07-22T04:56:25;16.60;12.80
11423;DHT22;5768;51.476;7.210;2023-07-22T05:01:28;16.50;12.80
11423;DHT22;5768;51.476;7.210;2023-07-22T05:06:31;16.30;12.80
11423;DHT22;5768;51.476;7.210;2023-07-22T05:11:34;16.40;12.90
11423;DHT22;5768;51.476;7.210;2023-07-22T05:16:37;16.60;12.70
11423;DHT22;5768;51.476;7.210;2023-07-22T05:21:40;16.70;12.80
11423;DHT22;5768;51.476;7.210;2023-07-22T05:26:44;16.80;12.70
11423;DHT22;5768;51.476;7.210;2023-07-22T05:31:47;16.80;12.60
11423;DHT22;5768;51.476;7.210;2023-07-22T05:36:49;17.00;12.70
11423;DHT22;5768;51.476;7.210;2023-07-22T05:41:53;17.00;12.50
11423;DHT22;5768;51.476;7.210;2023-07-22T05:46:59;16.80;12.60
11423;DHT22;5768;51.476;7.210;2023-07-22T05:52:01;17.10;12.50
11423;DHT22;5768;51.476;7.210;2023-07-22T05:57:06;17.20;12.60
11423;DHT22;5768;51.476;7.210;2023-07-22T06:02:12;16.90;12.60
11423;DHT22;5768;51.476;7.210;2023-07-22T06:07:16;16.90;12.50
11423;DHT22;5768;51.476;7.210;2023-07-22T06:12:21;17.20;12.50
11423;DHT22;5768;51.476;7.210;2023-07-22T06:17:23;17.30;12.40
11423;DHT22;5768;51.476;7.210;2023-07-22T06:22:26;17.40;12.30
11423;DHT22;5768;51.476;7.210;2023-07-22T06:27:31;17.50;12.40
11423;DHT22;5768;51.476;7.210;2023-07-22T06:32:37;17.70;12.30
11423;DHT22;5768;51.476;7.210;2023-07-22T06:37:40;17.60;12.40
11423;DHT22;5768;51.476;7.210;2023-07-22T06:42:50;17.70;12.20
11423;DHT22;5768;51.476;7.210;2023-07-22T06:47:52;17.50;12.20
11423;DHT22;5768;51.476;7.210;2023-07-22T06:52:54;17.80;12.50
11423;DHT22;5768;51.476;7.210;2023-07-22T06:57:58;18.00;12.30
11423;DHT22;5768;51.476;7.210;2023-07-22T07:03:01;18.30;12.20
11423;DHT22;5768;51.476;7.210;2023-07-22T07:08:03;18.20;12.10
11423;DHT22;5768;51.476;7.210;2023-07-22T07:13:08;18.30;12.00
11423;DHT22;5768;51.476;7.210;2023-07-22T07:18:10;18.40;12.20
11423;DHT22;5768;51.476;7.210;2023-07-22T07:23:13;18.20;12.10
11423;DHT22;5768;51.476;7.210;2023-07-22T07:28:18;18.50;12.20
11423;DHT22;5768;51.476;7.210;2023-07-22T07:33:20;18.80;12.00
11423;DHT22;5768;51.476;7.210;2023-07-22T07:38:23;19.20;11.70
11423;DHT22;5768;51.476;7.210;2023-07-22T07:43:26;19.20;11.80
11423;DHT22;5768;51.476;7.210;2023-07-22T07:48:31;19.00;11.70
11423;DHT22;5768;51.476;7.210;2023-07-22T07:53:33;18.50;11.70
11423;DHT22;5768;51.476;7.210;2023-07-22T07:58:37;19.10;11.70
11423;DHT22;5768;51.476;7.210;2023-07-22T08:03:40;19.30;11.80
11423;DHT22;5768;51.476;7.210;2023-07-22T08:08:43;19.40;11.50
11423;DHT22;5768;51.476;7.210;2023-07-22T08:13:47;19.60;11.40
11423;DHT22;5768;51.476;7.210;2023-07-22T08:18:51;19.60;11.50
11423;DHT22;5768;51.476;7.210;2023-07-22T08:23:54;19.90;11.60
11423;DHT22;5768;51.476;7.210;2023-07-22T08:28:57;19.60;11.40
11423;DHT22;5768;51.476;7.210;2023-07-22T08:34:00;20.10;11.60
11423;DHT22;5768;51.476;7.210;2023-07-22T08:39:02;20.20;11.20
11423;DHT22;5768;51.476;7.210;2023-07-22T08:44:08;20.10;11.40
11423;DHT22;5768;51.476;7.210;2023-07-22T08:49:16;20.50;11.00
11423;DHT22;5768;51.476;7.210;2023-07-22T08:54:18;20.80;11.00
11423;DHT22;5768;51.476;7.210;2023-07-22T08:59:24;20.50;10.80
11423;DHT22;5768;51.476;7.210;2023-07-22T09:04:27;20.60;10.90
11423;DHT22;5768;51.476;7.210;2023-07-22T09:09:30;20.80;10.90
11423;DHT22;5768;51.476;7.210;2023-07-22T09:14:34;21.40;11.00
11423;DHT22;5768;51.476;7.210;2023-07-22T09:19:37;21.30;10.50
11423;DHT22;5768;51.476;7.210;2023-07-22T09:24:40;21.70;10.50
11423;DHT22;5768;51.476;7.210;2023-07-22T09:29:43;21.90;10.40
11423;DHT22;5768;51.476;7.210;2023-07-22T09:34:54;20.90;10.40
11423;DHT22;5768;51.476;7.210;2023-07-22T09:39:58;22.10;10.20
11423;DHT22;5768;51.476;7.210;2023-07-22T09:45:03;21.20;10.30
11423;DHT22;5768;51.476;7.210;2023-07-22T09:50:06;21.50;10.40
11423;DHT22;5768;51.476;7.210;2023-07-22T09:55:12;21.30;10.40
11423;DHT22;5768;51.476;7.210;2023-07-22T10:00:17;21.30;10.30
11423;DHT22;5768;51.476;7.210;2023-07-22T10:05:21;21.90;10.50
11423;DHT22;5768;51.476;7.210;2023-07-22T10:10:26;22.00;10.20
11423;DHT22;5768;51.476;7.210;2023-07-22T10:15:34;22.30;10.30
11423;DHT22;5768;51.476;7.210;2023-07-22T10:20:37;22.30;10.10
11423;DHT22;5768;51.476;7.210;2023-07-22T10:25:42;22.40;10.20
11423;DHT22;5768;51.476;7.210;2023-07-22T10:30:46;22.80;10.00
11423;DHT22;5768;51.476;7.210;2023-07-22T10:36:03;22.80;9.90
11423;DHT22;5768;51.476;7.210;2023-07-22T10:41:12;22.70;9.90
11423;DHT22;5768;51.476;7.210;2023-07-22T10:46:19;22.10;10.00
11423;DHT22;5768;51.476;7.210;2023-07-22T10:51:35;22.10;10.00
11423;DHT22;5768;51.476;7.210;2023-07-22T10:56:40;21.90;10.10
11423;DHT22;5768;51.476;7.210;2023-07-22T11:01:45;22.10;10.10
11423;DHT22;5768;51.476;7.210;2023-07-22T11:06:54;22.70;9.90
11423;DHT22;5768;51.476;7.210;2023-07-22T11:11:58;22.60;10.00
11423;DHT22;5768;51.476;7.210;2023-07-22T11:17:07;22.40;9.70
11423;DHT22;5768;51.476;7.210;2023-07-22T11:22:12;22.50;10.00
11423;DHT22;5768;51.476;7.210;2023-07-22T11:27:15;22.80;9.60
11423;DHT22;5768;51.476;7.210;2023-07-22T11:32:20;22.50;9.60
11423;DHT22;5768;51.476;7.210;2023-07-22T11:37:23;23.00;9.60
11423;DHT22;5768;51.476;7.210;2023-07-22T11:42:25;23.10;9.60
11423;DHT22;5768;51.476;7.210;2023-07-22T11:47:33;23.10;9.50
11423;DHT22;5768;51.476;7.210;2023-07-22T11:52:36;23.30;9.50
11423;DHT22;5768;51.476;7.210;2023-07-22T11:57:40;23.70;9.40
11423;DHT22;5768;51.476;7.210;2023-07-22T12:02:44;23.80;9.50
11423;DHT22;5768;51.476;7.210;2023-07-22T12:07:46;23.50;9.50
11423;DHT22;5768;51.476;7.210;2023-07-22T12:12:49;24.50;9.30
11423;DHT22;5768;51.476;7.210;2023-07-22T12:17:55;24.80;9.20
11423;DHT22;5768;51.476;7.210;2023-07-22T12:22:58;25.20;9.00
11423;DHT22;5768;51.476;7.210;2023-07-22T12:28:01;25.10;9.00
11423;DHT22;5768;51.476;7.210;2023-07-22T12:33:06;25.00;8.90
11423;DHT22;5768;51.476;7.210;2023-07-22T12:38:08;24.70;9.00
11423;DHT22;5768;51.476;7.210;2023-07-22T12:43:11;25.20;8.80
11423;DHT22;5768;51.476;7.210;2023-07-22T12:48:15;24.70;8.80
11423;DHT22;5768;51.476;7.210;2023-07-22T12:53:20;24.50;8.90
11423;DHT22;5768;51.476;7.210;2023-07-22T12:58:23;26.80;8.60
11423;DHT22;5768;51.476;7.210;2023-07-22T13:03:27;25.60;8.60
11423;DHT22;5768;51.476;7.210;2023-07-22T13:08:29;27.20;8.40
11423;DHT22;5768;51.476;7.210;2023-07-22T13:13:31;26.90;8.30
11423;DHT22;5768;51.476;7.210;2023-07-22T13:18:35;26.80;8.50
11423;DHT22;5768;51.476;7.210;2023-07-22T13:23:37;27.00;8.40
11423;DHT22;5768;51.476;7.210;2023-07-22T13:28:40;27.50;8.30
11423;DHT22;5768;51.476;7.210;2023-07-22T13:33:44;26.80;8.30
11423;DHT22;5768;51.476;7.210;2023-07-22T13:38:46;27.40;8.30
11423;DHT22;5768;51.476;7.210;2023-07-22T13:43:49;26.70;8.30
11423;DHT22;5768;51.476;7.210;2023-07-22T13:48:52;26.50;8.40
11423;DHT22;5768;51.476;7.210;2023-07-22T13:53:55;28.40;8.10
11423;DHT22;5768;51.476;7.210;2023-07-22T13:59:00;28.60;7.90
11423;DHT22;5768;51.476;7.210;2023-07-22T14:04:06;28.30;7.90
11423;DHT22;5768;51.476;7.210;2023-07-22T14:09:13;28.30;7.90
11423;DHT22;5768;51.476;7.210;2023-07-22T14:14:15;30.00;7.70
11423;DHT22;5768;51.476;7.210;2023-07-22T14:19:19;31.60;7.30
11423;DHT22;5768;51.476;7.210;2023-07-22T14:24:21;32.30;6.90
11423;DHT22;5768;51.476;7.210;2023-07-22T14:29:24;31.80;6.60
11423;DHT22;5768;51.476;7.210;2023-07-22T14:34:28;34.20;6.30
11423;DHT22;5768;51.476;7.210;2023-07-22T14:39:30;34.20;6.10
11423;DHT22;5768;51.476;7.210;2023-07-22T14:44:32;36.90;5.60
11423;DHT22;5768;51.476;7.210;2023-07-22T14:49:36;33.00;6.20
11423;DHT22;5768;51.476;7.210;2023-07-22T14:54:38;35.20;5.90
11423;DHT22;5768;51.476;7.210;2023-07-22T14:59:41;35.20;5.90
11423;DHT22;5768;51.476;7.210;2023-07-22T15:04:44;34.20;6.00
11423;DHT22;5768;51.476;7.210;2023-07-22T15:09:46;35.20;5.70
11423;DHT22;5768;51.476;7.210;2023-07-22T15:14:48;33.00;6.20
11423;DHT22;5768;51.476;7.210;2023-07-22T15:19:52;31.50;6.40
11423;DHT22;5768;51.476;7.210;2023-07-22T15:24:55;29.10;6.90
11423;DHT22;5768;51.476;7.210;2023-07-22T15:29:57;29.20;7.00
11423;DHT22;5768;51.476;7.210;2023-07-22T15:35:01;28.90;7.00
11423;DHT22;5768;51.476;7.210;2023-07-22T15:40:03;28.80;7.10
11423;DHT22;5768;51.476;7.210;2023-07-22T15:45:07;29.80;6.90
11423;DHT22;5768;51.476;7.210;2023-07-22T15:50:12;30.40;6.70
11423;DHT22;5768;51.476;7.210;2023-07-22T15:55:15;31.00;6.60
11423;DHT22;5768;51.476;7.210;2023-07-22T16:00:17;28.20;7.20
11423;DHT22;5768;51.476;7.210;2023-07-22T16:05:21;28.80;7.10
11423;DHT22;5768;51.476;7.210;2023-07-22T16:10:23;31.60;6.80
11423;DHT22;5768;51.476;7.210;2023-07-22T16:15:26;31.10;6.70
11423;DHT22;5768;51.476;7.210;2023-07-22T16:20:29;30.00;6.90
11423;DHT22;5768;51.476;7.210;2023-07-22T16:25:32;31.70;6.80
11423;DHT22;5768;51.476;7.210;2023-07-22T16:30:34;30.00;6.90
11423;DHT22;5768;51.476;7.210;2023-07-22T16:35:38;28.40;7.20
11423;DHT22;5768;51.476;7.210;2023-07-22T16:40:40;27.70;7.40
11423;DHT22;5768;51.476;7.210;2023-07-22T16:45:42;28.20;7.40
11423;DHT22;5768;51.476;7.210;2023-07-22T16:50:46;28.00;7.40
11423;DHT22;5768;51.476;7.210;2023-07-22T16:55:48;27.70;7.50
11423;DHT22;5768;51.476;7.210;2023-07-22T17:00:50;27.80;7.40
11423;DHT22;5768;51.476;7.210;2023-07-22T17:05:54;27.60;7.50
11423;DHT22;5768;51.476;7.210;2023-07-22T17:10:56;27.30;7.60
11423;DHT22;5768;51.476;7.210;2023-07-22T17:15:59;27.60;7.50
11423;DHT22;5768;51.476;7.210;2023-07-22T17:21:02;27.60;7.50
11423;DHT22;5768;51.476;7.210;2023-07-22T17:26:05;26.60;7.70
11423;DHT22;5768;51.476;7.210;2023-07-22T17:31:07;26.00;7.90
11423;DHT22;5768;51.476;7.210;2023-07-22T17:36:11;25.60;8.00
11423;DHT22;5768;51.476;7.210;2023-07-22T17:41:13;25.30;8.10
11423;DHT22;5768;51.476;7.210;2023-07-22T17:46:16;25.30;8.10
11423;DHT22;5768;51.476;7.210;2023-07-22T17:51:19;24.40;8.30
11423;DHT22;5768;51.476;7.210;2023-07-22T17:56:21;24.20;8.30
11423;DHT22;5768;51.476;7.210;2023-07-22T18:01:24;23.60;8.50
11423;DHT22;5768;51.476;7.210;2023-07-22T18:06:28;23.40;8.60
11423;DHT22;5768;51.476;7.210;2023-07-22T18:11:32;23.60;8.70
11423;DHT22;5768;51.476;7.210;2023-07-22T18:16:34;23.10;8.70
11423;DHT22;5768;51.476;7.210;2023-07-22T18:21:38;22.80;8.90
11423;DHT22;5768;51.476;7.210;2023-07-22T18:26:40;22.60;9.00
11423;DHT22;5768;51.476;7.210;2023-07-22T18:31:43;22.50;9.00
11423;DHT22;5768;51.476;7.210;2023-07-22T18:36:46;22.50;9.10
11423;DHT22;5768;51.476;7.210;2023-07-22T18:41:49;22.50;9.10
11423;DHT22;5768;51.476;7.210;2023-07-22T18:46:51;22.30;9.10
11423;DHT22;5768;51.476;7.210;2023-07-22T18:51:55;22.10;9.20
11423;DHT22;5768;51.476;7.210;2023-07-22T18:56:57;21.90;9.20
11423;DHT22;5768;51.476;7.210;2023-07-22T19:02:00;21.90;9.30
11423;DHT22;5768;51.476;7.210;2023-07-22T19:07:06;21.80;9.20
11423;DHT22;5768;51.476;7.210;2023-07-22T19:12:08;21.80;9.20
11423;DHT22;5768;51.476;7.210;2023-07-22T19:17:10;21.70;9.30
11423;DHT22;5768;51.476;7.210;2023-07-22T19:22:14;21.60;9.20
11423;DHT22;5768;51.476;7.210;2023-07-22T19:27:17;21.50;9.30
11423;DHT22;5768;51.476;7.210;2023-07-22T19:32:19;21.40;9.30
11423;DHT22;5768;51.476;7.210;2023-07-22T19:37:23;21.40;9.30
11423;DHT22;5768;51.476;7.210;2023-07-22T19:42:25;21.50;9.30
11423;DHT22;5768;51.476;7.210;2023-07-22T19:47:27;21.50;9.30
11423;DHT22;5768;51.476;7.210;2023-07-22T19:52:34;21.50;9.30
11423;DHT22;5768;51.476;7.210;2023-07-22T19:57:36;21.50;9.30
11423;DHT22;5768;51.476;7.210;2023-07-22T20:02:39;21.50;9.40
11423;DHT22;5768;51.476;7.210;2023-07-22T20:07:42;21.30;9.40
11423;DHT22;5768;51.476;7.210;2023-07-22T20:12:44;21.10;9.50
11423;DHT22;5768;51.476;7.210;2023-07-22T20:17:47;20.90;9.60
11423;DHT22;5768;51.476;7.210;2023-07-22T20:22:53;21.00;9.80
11423;DHT22;5768;51.476;7.210;2023-07-22T20:27:56;21.00;9.80
11423;DHT22;5768;51.476;7.210;2023-07-22T20:32:59;20.90;10.10
11423;DHT22;5768;51.476;7.210;2023-07-22T20:38:03;20.70;10.20
11423;DHT22;5768;51.476;7.210;2023-07-22T20:43:05;20.80;10.30
11423;DHT22;5768;51.476;7.210;2023-07-22T20:48:08;20.60;10.30
11423;DHT22;5768;51.476;7.210;2023-07-22T20:53:11;20.40;10.30
11423;DHT22;5768;51.476;7.210;2023-07-22T20:58:14;20.30;10.40
11423;DHT22;5768;51.476;7.210;2023-07-22T21:03:16;20.30;10.70
11423;DHT22;5768;51.476;7.210;2023-07-22T21:08:20;20.30;10.70
11423;DHT22;5768;51.476;7.210;2023-07-22T21:13:22;20.50;10.80
11423;DHT22;5768;51.476;7.210;2023-07-22T21:18:25;20.50;11.10
11423;DHT22;5768;51.476;7.210;2023-07-22T21:23:29;20.50;11.20
11423;DHT22;5768;51.476;7.210;2023-07-22T21:28:31;20.40;11.20
11423;DHT22;5768;51.476;7.210;2023-07-22T21:33:34;20.20;10.90
11423;DHT22;5768;51.476;7.210;2023-07-22T21:38:38;20.10;11.20
11423;DHT22;5768;51.476;7.210;2023-07-22T21:43:40;20.10;11.90
11423;DHT22;5768;51.476;7.210;2023-07-22T21:48:43;20.10;12.30
11423;DHT22;5768;51.476;7.210;2023-07-22T21:53:47;20.00;12.10
11423;DHT22;5768;51.476;7.210;2023-07-22T21:58:50;20.00;12.30
11423;DHT22;5768;51.476;7.210;2023-07-22T22:03:52;20.00;12.00
11423;DHT22;5768;51.476;7.210;2023-07-22T22:08:56;19.90;12.70
11423;DHT22;5768;51.476;7.210;2023-07-22T22:13:58;19.90;12.70
11423;DHT22;5768;51.476;7.210;2023-07-22T22:19:00;19.90;12.70
11423;DHT22;5768;51.476;7.210;2023-07-22T22:24:05;19.80;12.80
11423;DHT22;5768;51.476;7.210;2023-07-22T22:29:07;19.80;12.80
11423;DHT22;5768;51.476;7.210;2023-07-22T22:34:09;19.80;12.60
11423;DHT22;5768;51.476;7.210;2023-07-22T22:39:13;19.80;12.90
11423;DHT22;5768;51.476;7.210;2023-07-22T22:44:15;19.80;12.90
11423;DHT22;5768;51.476;7.210;2023-07-22T22:49:18;19.80;12.90
11423;DHT22;5768;51.476;7.210;2023-07-22T22:54:24;20.30;13.10
11423;DHT22;5768;51.476;7.210;2023-07-22T22:59:26;19.60;13.00
11423;DHT22;5768;51.476;7.210;2023-07-22T23:04:29;19.80;13.20
11423;DHT22;5768;51.476;7.210;2023-07-22T23:09:32;19.70;13.10
11423;DHT22;5768;51.476;7.210;2023-07-22T23:14:35;19.60;13.20
11423;DHT22;5768;51.476;7.210;2023-07-22T23:19:37;19.60;13.60
11423;DHT22;5768;51.476;7.210;2023-07-22T23:24:41;19.50;13.80
11423;DHT22;5768;51.476;7.210;2023-07-22T23:29:43;19.50;13.80
11423;DHT22;5768;51.476;7.210;2023-07-22T23:34:45;19.60;13.70
11423;DHT22;5768;51.476;7.210;2023-07-22T23:39:49;19.80;13.50
11423;DHT22;5768;51.476;7.210;2023-07-22T23:44:51;19.50;13.80
11423;DHT22;5768;51.476;7.210;2023-07-22T23:49:53;19.40;14.20
11423;DHT22;5768;51.476;7.210;2023-07-22T23:54:57;19.40;14.80
11423;DHT22;5768;51.476;7.210;2023-07-22T23:59:59;19.20;15.30
